createdAt,value
2023-02-05T00:01:27.326Z,100.00
2023-02-05T00:03:53.959Z,100.00
2023-02-05T00:06:20.702Z,100.00
2023-02-05T00:08:47.706Z,100.00
2023-02-05T00:11:14.714Z,100.00
2023-02-05T00:13:42.781Z,100.00
2023-02-05T00:16:18.690Z,100.00
2023-02-05T00:18:46.053Z,100.00
2023-02-05T00:21:14.088Z,100.00
2023-02-05T00:23:41.025Z,100.00
2023-02-05T00:26:08.677Z,100.00
2023-02-05T00:28:36.455Z,100.00
2023-02-05T00:31:12.135Z,100.00
2023-02-05T00:33:39.404Z,100.00
2023-02-05T00:36:06.866Z,100.00
2023-02-05T00:38:33.625Z,100.00
2023-02-05T00:41:00.383Z,100.00
2023-02-05T00:43:27.012Z,100.00
2023-02-05T00:45:53.805Z,100.00
2023-02-05T00:48:20.384Z,100.00
2023-02-05T00:50:50.043Z,100.00
2023-02-05T00:53:17.377Z,100.00
2023-02-05T00:55:44.115Z,100.00
2023-02-05T00:58:11.769Z,100.00
2023-02-05T01:00:38.920Z,100.00
2023-02-05T01:03:05.755Z,100.00
2023-02-05T01:05:35.934Z,100.00
2023-02-05T01:08:03.441Z,100.00
2023-02-05T01:10:30.444Z,100.00
2023-02-05T01:12:57.277Z,100.00
2023-02-05T01:15:24.308Z,100.00
2023-02-05T01:17:51.108Z,100.00
2023-02-05T01:20:18.224Z,100.00
2023-02-05T01:22:44.989Z,100.00
2023-02-05T01:25:11.648Z,100.00
2023-02-05T01:27:38.349Z,100.00
2023-02-05T01:30:06.950Z,100.00
2023-02-05T01:32:33.720Z,100.00
2023-02-05T01:35:00.333Z,100.00
2023-02-05T01:37:27.130Z,100.00
2023-02-05T01:39:53.809Z,100.00
2023-02-05T01:42:26.415Z,100.00
2023-02-05T01:45:25.140Z,100.00
2023-02-05T01:47:58.043Z,100.00
2023-02-05T01:50:43.038Z,100.00
2023-02-05T01:53:14.723Z,100.00
2023-02-05T01:55:50.303Z,100.00
2023-02-05T01:58:17.094Z,100.00
2023-02-05T02:00:44.060Z,100.00
2023-02-05T02:03:14.259Z,100.00
2023-02-05T02:05:40.961Z,100.00
2023-02-05T02:08:09.915Z,100.00
2023-02-05T02:10:37.041Z,100.00
2023-02-05T02:13:04.300Z,100.00
2023-02-05T02:15:31.151Z,100.00
2023-02-05T02:18:22.469Z,100.00
2023-02-05T02:21:00.436Z,100.00
2023-02-05T02:23:35.244Z,100.00
2023-02-05T02:26:04.862Z,100.00
2023-02-05T02:28:46.824Z,100.00
2023-02-05T02:31:19.860Z,100.00
2023-02-05T02:33:56.019Z,100.00
2023-02-05T02:36:30.794Z,100.00
2023-02-05T02:39:02.762Z,100.00
2023-02-05T02:41:48.434Z,100.00
2023-02-05T02:44:35.732Z,100.00
2023-02-05T02:47:11.254Z,100.00
2023-02-05T02:50:01.469Z,100.00
2023-02-05T02:52:33.578Z,100.00
2023-02-05T02:55:05.749Z,100.00
2023-02-05T02:57:35.531Z,100.00
2023-02-05T03:00:04.611Z,100.00
2023-02-05T03:02:35.592Z,100.00
2023-02-05T03:05:08.626Z,100.00
2023-02-05T03:07:42.295Z,100.00
2023-02-05T03:10:37.054Z,100.00
2023-02-05T03:13:03.898Z,100.00
2023-02-05T03:15:31.542Z,100.00
2023-02-05T03:17:58.854Z,100.00
2023-02-05T03:20:33.361Z,100.00
2023-02-05T03:23:00.079Z,100.00
2023-02-05T03:25:29.322Z,100.00
2023-02-05T03:27:59.160Z,100.00
2023-02-05T03:30:33.119Z,100.00
2023-02-05T03:33:04.494Z,100.00
2023-02-05T03:35:41.689Z,100.00
2023-02-05T03:38:17.384Z,100.00
2023-02-05T03:40:51.110Z,100.00
2023-02-05T03:43:58.017Z,100.00
2023-02-05T03:46:47.513Z,100.00
2023-02-05T03:49:29.925Z,100.00
2023-02-05T03:52:06.496Z,100.00
2023-02-05T03:54:42.143Z,100.00
2023-02-05T03:57:18.424Z,100.00
2023-02-05T03:59:45.993Z,100.00
2023-02-05T04:02:13.156Z,100.00
2023-02-05T04:04:40.198Z,100.00
2023-02-05T04:07:06.953Z,100.00
2023-02-05T04:09:33.534Z,100.00
2023-02-05T04:12:00.129Z,100.00
2023-02-05T04:14:26.781Z,100.00
2023-02-05T04:16:53.434Z,100.00
2023-02-05T04:19:20.105Z,100.00
2023-02-05T04:21:46.757Z,100.00
2023-02-05T04:24:13.456Z,100.00
2023-02-05T04:26:40.317Z,100.00
2023-02-05T04:29:07.116Z,100.00
2023-02-05T04:31:33.782Z,100.00
2023-02-05T04:34:00.791Z,100.00
2023-02-05T04:36:27.358Z,100.00
2023-02-05T04:38:54.025Z,100.00
2023-02-05T04:41:20.567Z,100.00
2023-02-05T04:43:47.495Z,100.00
2023-02-05T04:46:14.192Z,100.00
2023-02-05T04:48:41.270Z,100.00
2023-02-05T04:51:10.520Z,100.00
2023-02-05T04:53:38.268Z,100.00
2023-02-05T04:56:07.830Z,100.00
2023-02-05T04:58:34.857Z,100.00
2023-02-05T05:01:01.767Z,100.00
2023-02-05T05:03:28.771Z,100.00
2023-02-05T05:05:55.775Z,100.00
2023-02-05T05:08:22.433Z,100.00
2023-02-05T05:10:49.078Z,100.00
2023-02-05T05:13:16.108Z,100.00
2023-02-05T05:15:42.724Z,100.00
2023-02-05T05:18:09.399Z,100.00
2023-02-05T05:20:36.016Z,100.00
2023-02-05T05:23:03.326Z,100.00
2023-02-05T05:25:31.315Z,100.00
2023-02-05T05:27:58.564Z,100.00
2023-02-05T05:30:25.539Z,100.00
2023-02-05T05:32:52.368Z,100.00
2023-02-05T05:35:18.958Z,100.00
2023-02-05T05:37:45.604Z,100.00
2023-02-05T05:40:31.405Z,100.00
2023-02-05T05:43:16.636Z,100.00
2023-02-05T05:45:43.266Z,100.00
2023-02-05T05:48:10.481Z,100.00
2023-02-05T05:50:37.201Z,100.00
2023-02-05T05:53:04.289Z,100.00
2023-02-05T05:55:30.991Z,100.00
2023-02-05T05:57:57.724Z,100.00
2023-02-05T06:00:24.404Z,100.00
2023-02-05T06:02:51.044Z,100.00
2023-02-05T06:05:17.903Z,100.00
2023-02-05T06:07:44.527Z,100.00
2023-02-05T06:10:11.321Z,100.00
2023-02-05T06:12:38.025Z,100.00
2023-02-05T06:15:05.789Z,100.00
2023-02-05T06:17:32.443Z,100.00
2023-02-05T06:19:59.444Z,100.00
2023-02-05T06:22:27.132Z,100.00
2023-02-05T06:24:53.874Z,100.00
2023-02-05T06:27:20.581Z,100.00
2023-02-05T06:29:47.403Z,100.00
2023-02-05T06:32:14.055Z,100.00
2023-02-05T06:34:40.640Z,100.00
2023-02-05T06:37:07.624Z,100.00
2023-02-05T06:39:34.408Z,100.00
2023-02-05T06:42:01.063Z,100.00
2023-02-05T06:44:27.783Z,100.00
2023-02-05T06:46:54.438Z,100.00
2023-02-05T06:49:21.226Z,100.00
2023-02-05T06:51:47.820Z,100.00
2023-02-05T06:54:14.892Z,100.00
2023-02-05T06:56:42.151Z,100.00
2023-02-05T06:59:08.817Z,100.00
2023-02-05T07:01:35.510Z,100.00
2023-02-05T07:04:02.847Z,100.00
2023-02-05T07:06:29.546Z,100.00
2023-02-05T07:08:56.377Z,100.00
2023-02-05T07:11:24.042Z,100.00
2023-02-05T07:13:50.774Z,100.00
2023-02-05T07:16:17.423Z,100.00
2023-02-05T07:18:44.380Z,100.00
2023-02-05T07:21:16.323Z,100.00
2023-02-05T07:23:43.467Z,100.00
2023-02-05T07:26:12.264Z,100.00
2023-02-05T07:28:39.683Z,100.00
2023-02-05T07:31:08.629Z,100.00
2023-02-05T07:33:37.130Z,100.00
2023-02-05T07:36:05.735Z,100.00
2023-02-05T07:38:33.131Z,100.00
2023-02-05T07:41:04.025Z,100.00
2023-02-05T07:43:30.834Z,100.00
2023-02-05T07:45:59.515Z,100.00
2023-02-05T07:48:26.440Z,100.00
2023-02-05T07:50:53.500Z,100.00
2023-02-05T07:53:20.776Z,100.00
2023-02-05T07:55:48.202Z,100.00
2023-02-05T07:58:15.207Z,100.00
2023-02-05T08:00:42.520Z,100.00
2023-02-05T08:03:09.640Z,100.00
2023-02-05T08:05:39.685Z,100.00
2023-02-05T08:08:07.701Z,100.00
2023-02-05T08:10:34.703Z,100.00
2023-02-05T08:13:01.605Z,100.00
2023-02-05T08:15:28.348Z,100.00
2023-02-05T08:17:55.011Z,100.00
2023-02-05T08:20:22.409Z,100.00
2023-02-05T08:22:48.931Z,100.00
2023-02-05T08:25:15.927Z,100.00
2023-02-05T08:27:43.582Z,100.00
2023-02-05T08:30:14.347Z,100.00
2023-02-05T08:32:41.397Z,100.00
2023-02-05T08:35:08.484Z,100.00
2023-02-05T08:37:35.217Z,100.00
2023-02-05T08:40:01.779Z,100.00
2023-02-05T08:42:28.401Z,100.00
2023-02-05T08:44:58.427Z,100.00
2023-02-05T08:47:25.713Z,100.00
2023-02-05T08:49:52.504Z,100.00
2023-02-05T08:52:19.360Z,100.00
2023-02-05T08:54:46.907Z,100.00
2023-02-05T08:57:13.719Z,100.00
2023-02-05T08:59:40.870Z,100.00
2023-02-05T09:02:08.185Z,100.00
2023-02-05T09:04:35.163Z,100.00
2023-02-05T09:07:03.305Z,98.25
2023-02-05T09:09:32.867Z,99.32
2023-02-05T09:11:59.802Z,99.60
2023-02-05T09:14:26.640Z,98.08
2023-02-05T09:16:53.721Z,96.83
2023-02-05T09:19:20.565Z,97.16
2023-02-05T09:21:47.297Z,98.68
2023-02-05T09:24:13.857Z,97.46
2023-02-05T09:26:40.893Z,95.77
2023-02-05T09:29:07.492Z,93.82
2023-02-05T09:31:34.316Z,95.43
2023-02-05T09:34:03.564Z,95.19
2023-02-05T09:36:30.214Z,95.84
2023-02-05T09:39:13.482Z,94.39
2023-02-05T09:41:57.545Z,94.24
2023-02-05T09:44:33.139Z,94.35
2023-02-05T09:47:14.329Z,94.05
2023-02-05T09:49:40.852Z,94.50
2023-02-05T09:52:39.182Z,95.88
2023-02-05T09:55:14.887Z,94.87
2023-02-05T09:57:42.214Z,94.56
2023-02-05T10:00:44.131Z,93.23
2023-02-05T10:03:35.530Z,93.04
2023-02-05T10:06:27.252Z,93.62
2023-02-05T10:09:27.915Z,94.23
2023-02-05T10:12:06.898Z,91.68
2023-02-05T10:14:39.398Z,91.94
2023-02-05T10:17:42.523Z,93.18
2023-02-05T10:20:15.338Z,92.14
2023-02-05T10:22:41.894Z,92.75
2023-02-05T10:25:39.117Z,92.51
2023-02-05T10:28:43.330Z,90.26
2023-02-05T10:31:41.451Z,93.29
2023-02-05T10:34:17.769Z,90.01
2023-02-05T10:36:49.264Z,91.17
2023-02-05T10:39:19.463Z,90.27
2023-02-05T10:42:09.311Z,91.33
2023-02-05T10:44:42.546Z,89.38
2023-02-05T10:47:36.982Z,87.74
2023-02-05T10:50:14.107Z,88.40
2023-02-05T10:52:40.751Z,87.95
2023-02-05T10:55:12.822Z,87.49
2023-02-05T10:57:39.823Z,86.01
2023-02-05T11:00:15.757Z,85.91
2023-02-05T11:02:47.627Z,83.89
2023-02-05T11:05:24.846Z,83.84
2023-02-05T11:07:54.659Z,82.54
2023-02-05T11:10:34.276Z,80.54
2023-02-05T11:13:13.954Z,82.91
2023-02-05T11:16:13.541Z,84.37
2023-02-05T11:18:44.776Z,87.85
2023-02-05T11:21:12.041Z,81.62
2023-02-05T11:23:40.314Z,81.73
2023-02-05T11:26:08.910Z,78.84
2023-02-05T11:28:39.923Z,78.92
2023-02-05T11:31:31.491Z,77.93
2023-02-05T11:34:07.719Z,75.64
2023-02-05T11:36:39.723Z,77.15
2023-02-05T11:39:07.449Z,79.31
2023-02-05T11:41:48.576Z,78.58
2023-02-05T11:44:26.989Z,77.31
2023-02-05T11:46:57.641Z,77.98
2023-02-05T11:49:37.117Z,74.72
2023-02-05T11:52:15.301Z,76.51
2023-02-05T11:54:47.108Z,76.81
2023-02-05T11:57:14.310Z,74.26
2023-02-05T11:59:41.066Z,72.53
2023-02-05T12:02:25.985Z,73.24
2023-02-05T12:05:00.721Z,71.57
2023-02-05T12:07:32.485Z,73.75
2023-02-05T12:10:00.044Z,73.39
2023-02-05T12:12:44.397Z,74.12
2023-02-05T12:15:28.968Z,73.49
2023-02-05T12:18:07.550Z,75.63
2023-02-05T12:20:48.654Z,71.41
2023-02-05T12:23:48.977Z,72.23
2023-02-05T12:26:37.264Z,77.22
2023-02-05T12:29:37.866Z,80.82
2023-02-05T12:32:19.324Z,81.13
2023-02-05T12:35:19.905Z,83.64
2023-02-05T12:38:13.425Z,89.00
2023-02-05T12:41:06.554Z,93.33
2023-02-05T12:43:41.152Z,91.41
2023-02-05T12:46:26.440Z,92.83
2023-02-05T12:49:23.073Z,89.63
2023-02-05T12:51:57.460Z,88.04
2023-02-05T12:54:44.137Z,88.88
2023-02-05T12:57:19.733Z,87.66
2023-02-05T12:59:52.538Z,86.19
2023-02-05T13:02:28.371Z,86.54
2023-02-05T13:05:33.669Z,86.23
2023-02-05T13:08:17.700Z,87.04
2023-02-05T13:11:05.902Z,89.33
2023-02-05T13:13:45.088Z,89.24
2023-02-05T13:16:17.189Z,89.43
2023-02-05T13:18:50.539Z,93.32
2023-02-05T13:21:38.789Z,93.05
2023-02-05T13:24:40.503Z,90.74
2023-02-05T13:27:48.041Z,91.49
2023-02-05T13:30:20.121Z,91.19
2023-02-05T13:32:51.989Z,93.22
2023-02-05T13:35:20.261Z,95.25
2023-02-05T13:37:59.123Z,98.79
2023-02-05T13:40:28.942Z,100.00
2023-02-05T13:43:07.782Z,100.00
2023-02-05T13:46:09.676Z,100.00
2023-02-05T13:48:56.822Z,100.00
2023-02-05T13:51:44.701Z,100.00
2023-02-05T13:54:49.508Z,100.00
2023-02-05T13:57:45.345Z,100.00
2023-02-05T14:00:14.742Z,100.00
2023-02-05T14:02:44.388Z,100.00
2023-02-05T14:05:13.734Z,100.00
2023-02-05T14:07:46.146Z,100.00
2023-02-05T14:10:30.646Z,100.00
2023-02-05T14:13:13.860Z,100.00
2023-02-05T14:15:42.453Z,100.00
2023-02-05T14:18:33.254Z,100.00
2023-02-05T14:21:00.012Z,100.00
2023-02-05T14:23:49.094Z,100.00
2023-02-05T14:26:16.859Z,100.00
2023-02-05T14:28:46.043Z,100.00
2023-02-05T14:31:48.624Z,100.00
2023-02-05T14:34:47.394Z,100.00
2023-02-05T14:37:46.040Z,100.00
2023-02-05T14:40:23.845Z,100.00
2023-02-05T14:42:57.107Z,100.00
2023-02-05T14:45:29.551Z,100.00
2023-02-05T14:47:57.473Z,100.00
2023-02-05T14:50:29.890Z,100.00
2023-02-05T14:53:02.997Z,100.00
2023-02-05T14:55:39.876Z,100.00
2023-02-05T14:58:17.522Z,100.00
2023-02-05T15:00:44.459Z,100.00
2023-02-05T15:03:17.938Z,100.00
2023-02-05T15:05:44.436Z,100.00
2023-02-05T15:08:17.394Z,100.00
2023-02-05T15:11:05.833Z,100.00
2023-02-05T15:13:32.930Z,100.00
2023-02-05T15:16:11.841Z,100.00
2023-02-05T15:18:45.977Z,100.00
2023-02-05T15:21:16.216Z,100.00
2023-02-05T15:23:47.179Z,100.00
2023-02-05T15:26:41.657Z,100.00
2023-02-05T15:29:29.158Z,100.00
2023-02-05T15:32:01.057Z,100.00
2023-02-05T15:34:47.999Z,100.00
2023-02-05T15:37:17.761Z,100.00
2023-02-05T15:39:57.177Z,100.00
2023-02-05T15:42:33.054Z,100.00
2023-02-05T15:45:15.634Z,100.00
2023-02-05T15:47:42.374Z,100.00
2023-02-05T15:50:15.032Z,100.00
2023-02-05T15:52:42.119Z,100.00
2023-02-05T15:55:13.492Z,100.00
2023-02-05T15:57:40.232Z,100.00
2023-02-05T16:00:09.702Z,100.00
2023-02-05T16:02:40.091Z,100.00
2023-02-05T16:05:19.921Z,100.00
2023-02-05T16:07:55.500Z,100.00
2023-02-05T16:10:28.077Z,100.00
2023-02-05T16:13:15.589Z,100.00
2023-02-05T16:15:55.718Z,100.00
2023-02-05T16:18:30.870Z,100.00
2023-02-05T16:21:04.808Z,100.00
2023-02-05T16:23:37.681Z,100.00
2023-02-05T16:26:13.208Z,100.00
2023-02-05T16:28:48.599Z,100.00
2023-02-05T16:31:20.601Z,100.00
2023-02-05T16:34:02.064Z,100.00
2023-02-05T16:36:39.158Z,100.00
2023-02-05T16:39:18.727Z,100.00
2023-02-05T16:41:45.985Z,100.00
2023-02-05T16:44:30.630Z,100.00
2023-02-05T16:47:24.145Z,100.00
2023-02-05T16:49:52.235Z,100.00
2023-02-05T16:52:27.297Z,100.00
2023-02-05T16:54:54.576Z,100.00
2023-02-05T16:57:32.278Z,100.00
2023-02-05T17:00:27.819Z,100.00
2023-02-05T17:02:57.482Z,100.00
2023-02-05T17:05:34.183Z,100.00
2023-02-05T17:08:05.111Z,100.00
2023-02-05T17:10:32.898Z,100.00
2023-02-05T17:13:03.872Z,100.00
2023-02-05T17:15:40.565Z,100.00
2023-02-05T17:18:26.614Z,100.00
2023-02-05T17:21:28.395Z,100.00
2023-02-05T17:23:57.875Z,100.00
2023-02-05T17:26:35.137Z,100.00
2023-02-05T17:29:05.576Z,100.00
2023-02-05T17:31:39.536Z,100.00
2023-02-05T17:34:06.789Z,100.00
2023-02-05T17:36:33.847Z,100.00
2023-02-05T17:39:00.456Z,100.00
2023-02-05T17:41:49.390Z,100.00
2023-02-05T17:44:17.245Z,100.00
2023-02-05T17:46:44.737Z,100.00
2023-02-05T17:49:11.804Z,100.00
2023-02-05T17:51:42.175Z,100.00
2023-02-05T17:54:19.516Z,100.00
2023-02-05T17:56:48.508Z,100.00
2023-02-05T17:59:17.700Z,100.00
2023-02-05T18:01:48.300Z,100.00
2023-02-05T18:04:15.945Z,100.00
2023-02-05T18:06:43.390Z,100.00
2023-02-05T18:09:11.107Z,100.00
2023-02-05T18:11:38.013Z,100.00
2023-02-05T18:14:05.733Z,100.00
2023-02-05T18:16:33.077Z,100.00
2023-02-05T18:18:59.890Z,100.00
2023-02-05T18:21:26.736Z,100.00
2023-02-05T18:23:53.724Z,100.00
2023-02-05T18:26:21.020Z,100.00
2023-02-05T18:28:47.920Z,100.00
2023-02-05T18:31:15.375Z,100.00
2023-02-05T18:33:42.543Z,100.00
2023-02-05T18:36:13.937Z,100.00
2023-02-05T18:38:43.214Z,100.00
2023-02-05T18:41:13.194Z,100.00
2023-02-05T18:43:40.862Z,100.00
2023-02-05T18:46:18.385Z,100.00
2023-02-05T18:48:45.882Z,100.00
2023-02-05T18:51:17.291Z,100.00
2023-02-05T18:53:44.732Z,100.00
2023-02-05T18:56:23.287Z,100.00
2023-02-05T18:59:01.427Z,100.00
2023-02-05T19:01:29.918Z,100.00
2023-02-05T19:04:00.781Z,100.00
2023-02-05T19:06:27.926Z,100.00
2023-02-05T19:08:57.308Z,100.00
2023-02-05T19:11:25.811Z,100.00
2023-02-05T19:14:12.845Z,100.00
2023-02-05T19:16:40.381Z,100.00
2023-02-05T19:19:07.875Z,100.00
2023-02-05T19:21:34.797Z,100.00
2023-02-05T19:24:05.795Z,100.00
2023-02-05T19:26:35.236Z,100.00
2023-02-05T19:29:05.775Z,100.00
2023-02-05T19:31:34.576Z,100.00
2023-02-05T19:34:01.654Z,100.00
2023-02-05T19:36:29.485Z,100.00
2023-02-05T19:38:56.484Z,100.00
2023-02-05T19:41:26.808Z,100.00
2023-02-05T19:43:58.515Z,100.00
2023-02-05T19:46:27.613Z,100.00
2023-02-05T19:48:55.543Z,100.00
2023-02-05T19:51:23.121Z,100.00
2023-02-05T19:53:52.994Z,100.00
2023-02-05T19:56:21.429Z,100.00
2023-02-05T19:58:51.341Z,100.00
2023-02-05T20:01:23.786Z,100.00
2023-02-05T20:03:58.860Z,100.00
2023-02-05T20:06:28.578Z,100.00
2023-02-05T20:08:55.690Z,100.00
2023-02-05T20:11:22.826Z,100.00
2023-02-05T20:13:49.978Z,100.00
2023-02-05T20:16:22.525Z,100.00
2023-02-05T20:18:57.241Z,100.00
2023-02-05T20:21:24.764Z,100.00
2023-02-05T20:23:51.671Z,100.00
2023-02-05T20:26:19.640Z,100.00
2023-02-05T20:29:06.901Z,100.00
2023-02-05T20:31:39.277Z,100.00
2023-02-05T20:34:09.248Z,100.00
2023-02-05T20:36:37.124Z,100.00
2023-02-05T20:39:07.709Z,100.00
2023-02-05T20:41:34.658Z,100.00
2023-02-05T20:44:01.926Z,100.00
2023-02-05T20:46:29.054Z,100.00
2023-02-05T20:48:55.757Z,100.00
2023-02-05T20:51:23.378Z,100.00
2023-02-05T20:53:51.269Z,100.00
2023-02-05T20:56:20.214Z,100.00
2023-02-05T20:58:47.743Z,100.00
2023-02-05T21:01:16.209Z,100.00
2023-02-05T21:03:45.692Z,100.00
2023-02-05T21:06:13.053Z,100.00
2023-02-05T21:08:44.873Z,100.00
2023-02-05T21:11:14.045Z,100.00
2023-02-05T21:13:41.376Z,100.00
2023-02-05T21:16:08.859Z,100.00
2023-02-05T21:18:38.505Z,100.00
2023-02-05T21:21:10.806Z,100.00
2023-02-05T21:23:38.472Z,100.00
2023-02-05T21:26:05.536Z,100.00
2023-02-05T21:28:34.141Z,100.00
2023-02-05T21:31:07.874Z,100.00
2023-02-05T21:33:36.514Z,100.00
2023-02-05T21:36:09.000Z,100.00
2023-02-05T21:38:37.233Z,100.00
2023-02-05T21:41:15.517Z,100.00
2023-02-05T21:43:42.834Z,100.00
2023-02-05T21:46:12.878Z,100.00
2023-02-05T21:48:41.006Z,100.00
2023-02-05T21:51:12.760Z,100.00
2023-02-05T21:53:40.407Z,100.00
2023-02-05T21:56:10.032Z,100.00
2023-02-05T21:58:38.347Z,100.00
2023-02-05T22:01:18.461Z,100.00
2023-02-05T22:03:56.944Z,100.00
2023-02-05T22:06:26.242Z,100.00
2023-02-05T22:08:53.939Z,100.00
2023-02-05T22:11:21.947Z,100.00
2023-02-05T22:13:50.610Z,100.00
2023-02-05T22:16:19.078Z,100.00
2023-02-05T22:18:47.856Z,100.00
2023-02-05T22:21:24.645Z,100.00
2023-02-05T22:23:54.230Z,100.00
2023-02-05T22:26:24.308Z,100.00
2023-02-05T22:28:51.776Z,100.00
2023-02-05T22:31:20.652Z,100.00
2023-02-05T22:33:49.664Z,100.00
2023-02-05T22:36:22.440Z,100.00
2023-02-05T22:38:50.952Z,100.00
2023-02-05T22:41:27.214Z,100.00
2023-02-05T22:43:55.984Z,100.00
2023-02-05T22:46:25.570Z,100.00
2023-02-05T22:48:54.408Z,100.00
2023-02-05T22:51:28.774Z,100.00
2023-02-05T22:53:55.764Z,100.00
2023-02-05T22:56:23.004Z,100.00
2023-02-05T22:58:50.684Z,100.00
2023-02-05T23:01:39.094Z,100.00
2023-02-05T23:04:08.046Z,100.00
2023-02-05T23:06:38.482Z,100.00
2023-02-05T23:09:19.050Z,100.00
2023-02-05T23:11:49.911Z,100.00
2023-02-05T23:14:18.077Z,100.00
2023-02-05T23:16:46.459Z,100.00
2023-02-05T23:19:22.741Z,100.00
2023-02-05T23:21:49.676Z,100.00
2023-02-05T23:24:18.050Z,100.00
2023-02-05T23:26:48.270Z,100.00
2023-02-05T23:29:17.771Z,100.00
2023-02-05T23:31:44.768Z,100.00
2023-02-05T23:34:12.349Z,100.00
2023-02-05T23:36:39.651Z,100.00
2023-02-05T23:39:06.462Z,100.00
2023-02-05T23:41:36.977Z,100.00
2023-02-05T23:44:08.923Z,100.00
2023-02-05T23:46:36.854Z,100.00
2023-02-05T23:49:04.493Z,100.00
2023-02-05T23:51:32.122Z,100.00
2023-02-05T23:53:59.992Z,100.00
2023-02-05T23:56:26.915Z,100.00
2023-02-05T23:58:53.993Z,100.00
